Pagrindinis puslapis
METAR-TAF:

METAR-TAF

Oro uostai :

Bethel, Aliaska, Jungtinės Amerikos Valstijos

platuma: 60-46-47N, ilguma: 161-50-16W, Aukštis: 38 m

Dabartinis oras

Ataskaita buvo paskelbta 16 minutes, ne 10:53 UTC
Vėjas 19 kt iš Šiaurės/Šiaurės Rytų
Temperatūra -16°C
Drėgmė 71%
Slėgis 1005 hPa
Matomumas: 16.1 km
Giedras dangus

METAR: PABE 261053Z 03019KT 10SM CLR M16/M20 A2968 RMK AO2 SLP053 T11611200

Laikas: 02:09 (11:09 UTC)

Prognozė

Ataskaita buvo paskelbta 5 valandos ir 46 minutes, ne 05:23 UTC
Prognozė galioja nuo 26 metu 06 UTC su 27 metu 06 UTC
Vėjas 25 kt iš Šiaurės/Šiaurės Rytų
Matomumas: 9.7 km
Giedras dangus
Sniego pustymas
Nuo 26 metu 1200 UTC
Vėjas 25 kt iš Šiaurės/Šiaurės Rytų
Matomumas: 9.7 km
Giedras dangus
Sniego pustymas
Nuo 26 metu 1800 UTC
Vėjas 20 kt iš Šiaurės/Šiaurės Rytų
Matomumas: 10 km
Giedras dangus

TAF: PABE 260523Z 2606/2706 02025KT 6SM BLSN SKC WS020/06060KT FM261200 02025KT 6SM BLSN SKC WS020/06050KT FM261800 03020KT P6SM SKC

Orai ataskaitas ir orų prognozės (METAR, TAF).

turimą stotys yra geltonos ir raudonos taškus žemėlapyje.

Perkelti pele per norėdami pamatyti stoties vardą.

Tada spustelėkite, norėdami matyti oro stebėjimo ir prognozės.

Norėdami pakeisti žemėlapį: spustelėkite ant žalios mygtukų su juodo kryžiaus žemyn,; žalią mygtuką su brūkšneliu, jei norite nutolinti; arba žalių rodyklių gretimoms žemėlapius.


METAR-TAF: